sensor_id;sensor_type;location;lat;lon;timestamp;P1;durP1;ratioP1;P2;durP2;ratioP2
21148;SDS011;10732;51.472;6.466;2023-04-12T00:01:02;6.57;;;1.90;;
21148;SDS011;10732;51.472;6.466;2023-04-12T00:03:27;7.22;;;2.08;;
21148;SDS011;10732;51.472;6.466;2023-04-12T00:05:54;6.32;;;2.13;;
21148;SDS011;10732;51.472;6.466;2023-04-12T00:08:20;6.80;;;2.00;;
21148;SDS011;10732;51.472;6.466;2023-04-12T00:10:50;6.63;;;2.22;;
21148;SDS011;10732;51.472;6.466;2023-04-12T00:13:16;9.45;;;2.08;;
21148;SDS011;10732;51.472;6.466;2023-04-12T00:15:42;9.13;;;2.35;;
21148;SDS011;10732;51.472;6.466;2023-04-12T00:18:08;6.35;;;2.08;;
21148;SDS011;10732;51.472;6.466;2023-04-12T00:20:34;9.73;;;2.33;;
21148;SDS011;10732;51.472;6.466;2023-04-12T00:22:59;11.05;;;2.72;;
21148;SDS011;10732;51.472;6.466;2023-04-12T00:25:25;5.80;;;1.90;;
21148;SDS011;10732;51.472;6.466;2023-04-12T00:27:50;8.15;;;2.33;;
21148;SDS011;10732;51.472;6.466;2023-04-12T00:30:16;9.10;;;2.33;;
21148;SDS011;10732;51.472;6.466;2023-04-12T00:32:41;5.60;;;1.98;;
21148;SDS011;10732;51.472;6.466;2023-04-12T00:35:07;8.05;;;2.42;;
21148;SDS011;10732;51.472;6.466;2023-04-12T00:37:33;5.68;;;2.25;;
21148;SDS011;10732;51.472;6.466;2023-04-12T00:40:00;7.03;;;2.00;;
21148;SDS011;10732;51.472;6.466;2023-04-12T00:42:26;6.20;;;1.88;;
21148;SDS011;10732;51.472;6.466;2023-04-12T00:44:52;8.98;;;2.42;;
21148;SDS011;10732;51.472;6.466;2023-04-12T00:47:17;6.65;;;2.00;;
21148;SDS011;10732;51.472;6.466;2023-04-12T00:49:43;8.60;;;2.25;;
21148;SDS011;10732;51.472;6.466;2023-04-12T00:52:09;9.63;;;2.67;;
21148;SDS011;10732;51.472;6.466;2023-04-12T00:54:39;5.90;;;2.00;;
21148;SDS011;10732;51.472;6.466;2023-04-12T00:57:06;7.00;;;2.03;;
21148;SDS011;10732;51.472;6.466;2023-04-12T00:59:31;7.47;;;2.25;;
21148;SDS011;10732;51.472;6.466;2023-04-12T01:01:57;7.30;;;2.20;;
21148;SDS011;10732;51.472;6.466;2023-04-12T01:04:24;7.85;;;2.63;;
21148;SDS011;10732;51.472;6.466;2023-04-12T01:07:08;10.82;;;2.75;;
21148;SDS011;10732;51.472;6.466;2023-04-12T01:12:25;10.15;;;2.58;;
21148;SDS011;10732;51.472;6.466;2023-04-12T01:17:29;7.72;;;2.50;;
21148;SDS011;10732;51.472;6.466;2023-04-12T01:20:05;9.10;;;2.20;;
21148;SDS011;10732;51.472;6.466;2023-04-12T01:22:44;7.97;;;2.72;;
21148;SDS011;10732;51.472;6.466;2023-04-12T01:27:55;5.75;;;2.17;;
21148;SDS011;10732;51.472;6.466;2023-04-12T01:30:24;11.75;;;2.72;;
21148;SDS011;10732;51.472;6.466;2023-04-12T01:32:52;9.25;;;2.88;;
21148;SDS011;10732;51.472;6.466;2023-04-12T01:35:20;7.72;;;2.67;;
21148;SDS011;10732;51.472;6.466;2023-04-12T01:37:49;11.27;;;3.10;;
21148;SDS011;10732;51.472;6.466;2023-04-12T01:40:15;11.65;;;2.95;;
21148;SDS011;10732;51.472;6.466;2023-04-12T01:42:43;9.77;;;2.95;;
21148;SDS011;10732;51.472;6.466;2023-04-12T01:45:09;12.68;;;3.10;;
21148;SDS011;10732;51.472;6.466;2023-04-12T01:47:35;10.13;;;3.10;;
21148;SDS011;10732;51.472;6.466;2023-04-12T01:52:45;11.25;;;3.25;;
21148;SDS011;10732;51.472;6.466;2023-04-12T01:55:18;8.23;;;3.03;;
21148;SDS011;10732;51.472;6.466;2023-04-12T01:57:47;10.63;;;2.90;;
21148;SDS011;10732;51.472;6.466;2023-04-12T02:00:14;10.73;;;3.28;;
21148;SDS011;10732;51.472;6.466;2023-04-12T02:02:41;13.38;;;3.70;;
21148;SDS011;10732;51.472;6.466;2023-04-12T02:05:08;12.57;;;3.40;;
21148;SDS011;10732;51.472;6.466;2023-04-12T02:07:35;10.95;;;3.35;;
21148;SDS011;10732;51.472;6.466;2023-04-12T02:10:01;9.85;;;3.38;;
21148;SDS011;10732;51.472;6.466;2023-04-12T02:12:27;6.38;;;2.65;;
21148;SDS011;10732;51.472;6.466;2023-04-12T02:14:52;8.90;;;2.78;;
21148;SDS011;10732;51.472;6.466;2023-04-12T02:17:18;8.60;;;2.90;;
21148;SDS011;10732;51.472;6.466;2023-04-12T02:19:44;10.75;;;3.10;;
21148;SDS011;10732;51.472;6.466;2023-04-12T02:22:09;8.10;;;2.70;;
21148;SDS011;10732;51.472;6.466;2023-04-12T02:24:35;5.95;;;2.45;;
21148;SDS011;10732;51.472;6.466;2023-04-12T02:27:00;10.02;;;3.03;;
21148;SDS011;10732;51.472;6.466;2023-04-12T02:29:26;9.13;;;2.92;;
21148;SDS011;10732;51.472;6.466;2023-04-12T02:31:52;10.45;;;3.20;;
21148;SDS011;10732;51.472;6.466;2023-04-12T02:34:17;11.63;;;3.00;;
21148;SDS011;10732;51.472;6.466;2023-04-12T02:36:46;11.90;;;3.35;;
21148;SDS011;10732;51.472;6.466;2023-04-12T02:39:13;8.32;;;3.20;;
21148;SDS011;10732;51.472;6.466;2023-04-12T02:41:38;8.98;;;2.80;;
21148;SDS011;10732;51.472;6.466;2023-04-12T02:44:04;9.13;;;2.50;;
21148;SDS011;10732;51.472;6.466;2023-04-12T02:46:29;10.15;;;3.03;;
21148;SDS011;10732;51.472;6.466;2023-04-12T02:48:55;8.57;;;2.72;;
21148;SDS011;10732;51.472;6.466;2023-04-12T02:51:21;11.88;;;2.67;;
21148;SDS011;10732;51.472;6.466;2023-04-12T02:53:46;6.93;;;2.60;;
21148;SDS011;10732;51.472;6.466;2023-04-12T02:56:12;5.57;;;2.58;;
21148;SDS011;10732;51.472;6.466;2023-04-12T02:58:37;6.18;;;2.60;;
21148;SDS011;10732;51.472;6.466;2023-04-12T03:01:03;8.10;;;2.30;;
21148;SDS011;10732;51.472;6.466;2023-04-12T03:03:32;6.43;;;2.47;;
21148;SDS011;10732;51.472;6.466;2023-04-12T03:05:58;8.48;;;2.60;;
21148;SDS011;10732;51.472;6.466;2023-04-12T03:08:24;6.70;;;2.20;;
21148;SDS011;10732;51.472;6.466;2023-04-12T03:10:50;7.07;;;2.20;;
21148;SDS011;10732;51.472;6.466;2023-04-12T03:13:15;6.25;;;2.30;;
21148;SDS011;10732;51.472;6.466;2023-04-12T03:15:41;6.00;;;2.08;;
21148;SDS011;10732;51.472;6.466;2023-04-12T03:18:07;6.13;;;2.03;;
21148;SDS011;10732;51.472;6.466;2023-04-12T03:20:33;4.22;;;1.80;;
21148;SDS011;10732;51.472;6.466;2023-04-12T03:22:59;6.85;;;2.00;;
21148;SDS011;10732;51.472;6.466;2023-04-12T03:25:25;6.18;;;2.13;;
21148;SDS011;10732;51.472;6.466;2023-04-12T03:27:51;4.75;;;1.98;;
21148;SDS011;10732;51.472;6.466;2023-04-12T03:30:16;4.38;;;1.90;;
21148;SDS011;10732;51.472;6.466;2023-04-12T03:32:42;4.70;;;2.10;;
21148;SDS011;10732;51.472;6.466;2023-04-12T03:35:09;4.68;;;2.08;;
21148;SDS011;10732;51.472;6.466;2023-04-12T03:37:35;5.60;;;2.00;;
21148;SDS011;10732;51.472;6.466;2023-04-12T03:40:01;9.27;;;2.22;;
21148;SDS011;10732;51.472;6.466;2023-04-12T03:42:27;3.42;;;1.67;;
21148;SDS011;10732;51.472;6.466;2023-04-12T03:44:53;6.25;;;1.92;;
21148;SDS011;10732;51.472;6.466;2023-04-12T03:47:19;5.13;;;2.00;;
21148;SDS011;10732;51.472;6.466;2023-04-12T03:49:48;5.97;;;2.10;;
21148;SDS011;10732;51.472;6.466;2023-04-12T03:52:13;4.15;;;1.77;;
21148;SDS011;10732;51.472;6.466;2023-04-12T03:54:39;4.63;;;1.90;;
21148;SDS011;10732;51.472;6.466;2023-04-12T03:57:05;5.18;;;1.60;;
21148;SDS011;10732;51.472;6.466;2023-04-12T03:59:30;4.10;;;1.60;;
21148;SDS011;10732;51.472;6.466;2023-04-12T04:01:56;5.43;;;1.98;;
21148;SDS011;10732;51.472;6.466;2023-04-12T04:04:25;5.25;;;1.83;;
21148;SDS011;10732;51.472;6.466;2023-04-12T04:06:51;4.35;;;1.77;;
21148;SDS011;10732;51.472;6.466;2023-04-12T04:09:17;8.07;;;1.75;;
21148;SDS011;10732;51.472;6.466;2023-04-12T04:11:42;5.03;;;2.15;;
21148;SDS011;10732;51.472;6.466;2023-04-12T04:14:08;5.55;;;1.90;;
21148;SDS011;10732;51.472;6.466;2023-04-12T04:16:33;4.00;;;1.63;;
21148;SDS011;10732;51.472;6.466;2023-04-12T04:18:59;5.63;;;1.67;;
21148;SDS011;10732;51.472;6.466;2023-04-12T04:21:24;3.17;;;1.80;;
21148;SDS011;10732;51.472;6.466;2023-04-12T04:23:50;4.70;;;1.77;;
21148;SDS011;10732;51.472;6.466;2023-04-12T04:26:16;5.88;;;1.83;;
21148;SDS011;10732;51.472;6.466;2023-04-12T04:28:43;2.10;;;1.63;;
21148;SDS011;10732;51.472;6.466;2023-04-12T04:31:09;6.43;;;2.17;;
21148;SDS011;10732;51.472;6.466;2023-04-12T04:33:35;4.75;;;2.03;;
21148;SDS011;10732;51.472;6.466;2023-04-12T04:36:01;5.30;;;2.10;;
21148;SDS011;10732;51.472;6.466;2023-04-12T04:38:28;5.93;;;2.20;;
21148;SDS011;10732;51.472;6.466;2023-04-12T04:40:56;4.05;;;2.03;;
21148;SDS011;10732;51.472;6.466;2023-04-12T04:43:22;3.95;;;2.00;;
21148;SDS011;10732;51.472;6.466;2023-04-12T04:45:50;6.05;;;2.00;;
21148;SDS011;10732;51.472;6.466;2023-04-12T04:48:18;6.18;;;2.10;;
21148;SDS011;10732;51.472;6.466;2023-04-12T04:50:45;5.70;;;2.45;;
21148;SDS011;10732;51.472;6.466;2023-04-12T04:53:11;5.38;;;2.65;;
21148;SDS011;10732;51.472;6.466;2023-04-12T04:55:36;4.80;;;2.72;;
21148;SDS011;10732;51.472;6.466;2023-04-12T04:58:02;5.43;;;3.40;;
21148;SDS011;10732;51.472;6.466;2023-04-12T05:00:29;6.38;;;3.15;;
21148;SDS011;10732;51.472;6.466;2023-04-12T05:02:55;10.27;;;3.47;;
21148;SDS011;10732;51.472;6.466;2023-04-12T05:05:21;6.70;;;3.65;;
21148;SDS011;10732;51.472;6.466;2023-04-12T05:07:49;6.32;;;3.63;;
21148;SDS011;10732;51.472;6.466;2023-04-12T05:10:15;7.97;;;3.35;;
21148;SDS011;10732;51.472;6.466;2023-04-12T05:12:41;8.30;;;3.20;;
21148;SDS011;10732;51.472;6.466;2023-04-12T05:15:06;9.65;;;3.85;;
21148;SDS011;10732;51.472;6.466;2023-04-12T05:17:32;8.50;;;4.07;;
21148;SDS011;10732;51.472;6.466;2023-04-12T05:20:00;7.90;;;4.05;;
21148;SDS011;10732;51.472;6.466;2023-04-12T05:22:27;7.38;;;3.80;;
21148;SDS011;10732;51.472;6.466;2023-04-12T05:24:53;10.50;;;4.28;;
21148;SDS011;10732;51.472;6.466;2023-04-12T05:27:20;6.18;;;4.18;;
21148;SDS011;10732;51.472;6.466;2023-04-12T05:29:45;10.25;;;3.92;;
21148;SDS011;10732;51.472;6.466;2023-04-12T05:32:11;6.93;;;4.10;;
21148;SDS011;10732;51.472;6.466;2023-04-12T05:34:37;5.88;;;3.88;;
21148;SDS011;10732;51.472;6.466;2023-04-12T05:37:03;8.30;;;3.95;;
21148;SDS011;10732;51.472;6.466;2023-04-12T05:39:29;6.07;;;3.70;;
21148;SDS011;10732;51.472;6.466;2023-04-12T05:41:55;6.15;;;3.83;;
21148;SDS011;10732;51.472;6.466;2023-04-12T05:44:21;7.03;;;3.63;;
21148;SDS011;10732;51.472;6.466;2023-04-12T05:46:46;9.02;;;4.13;;
21148;SDS011;10732;51.472;6.466;2023-04-12T05:49:12;8.20;;;3.95;;
21148;SDS011;10732;51.472;6.466;2023-04-12T05:51:37;10.80;;;4.03;;
21148;SDS011;10732;51.472;6.466;2023-04-12T05:54:03;9.48;;;3.92;;
21148;SDS011;10732;51.472;6.466;2023-04-12T05:56:31;7.78;;;4.28;;
21148;SDS011;10732;51.472;6.466;2023-04-12T05:58:57;10.65;;;4.32;;
21148;SDS011;10732;51.472;6.466;2023-04-12T06:01:22;7.72;;;4.35;;
21148;SDS011;10732;51.472;6.466;2023-04-12T06:03:58;8.40;;;4.00;;
21148;SDS011;10732;51.472;6.466;2023-04-12T06:06:26;6.53;;;4.07;;
21148;SDS011;10732;51.472;6.466;2023-04-12T06:08:54;10.88;;;4.22;;
21148;SDS011;10732;51.472;6.466;2023-04-12T06:11:26;11.50;;;4.05;;
21148;SDS011;10732;51.472;6.466;2023-04-12T06:13:52;9.23;;;4.38;;
21148;SDS011;10732;51.472;6.466;2023-04-12T06:16:18;8.57;;;4.90;;
21148;SDS011;10732;51.472;6.466;2023-04-12T06:18:43;8.80;;;4.10;;
21148;SDS011;10732;51.472;6.466;2023-04-12T06:21:09;8.07;;;4.53;;
21148;SDS011;10732;51.472;6.466;2023-04-12T06:23:35;7.28;;;3.97;;
21148;SDS011;10732;51.472;6.466;2023-04-12T06:26:00;8.60;;;4.57;;
21148;SDS011;10732;51.472;6.466;2023-04-12T06:28:26;6.32;;;4.38;;
21148;SDS011;10732;51.472;6.466;2023-04-12T06:30:52;6.80;;;4.20;;
21148;SDS011;10732;51.472;6.466;2023-04-12T06:33:18;11.52;;;4.75;;
21148;SDS011;10732;51.472;6.466;2023-04-12T06:35:46;6.72;;;4.47;;
21148;SDS011;10732;51.472;6.466;2023-04-12T06:38:12;9.95;;;4.70;;
21148;SDS011;10732;51.472;6.466;2023-04-12T06:40:38;9.10;;;4.40;;
21148;SDS011;10732;51.472;6.466;2023-04-12T06:43:03;8.93;;;5.15;;
21148;SDS011;10732;51.472;6.466;2023-04-12T06:45:29;6.20;;;4.70;;
21148;SDS011;10732;51.472;6.466;2023-04-12T06:47:55;9.18;;;4.88;;
21148;SDS011;10732;51.472;6.466;2023-04-12T06:50:21;9.45;;;5.20;;
21148;SDS011;10732;51.472;6.466;2023-04-12T06:52:46;12.05;;;7.35;;
21148;SDS011;10732;51.472;6.466;2023-04-12T06:55:12;11.95;;;6.03;;
21148;SDS011;10732;51.472;6.466;2023-04-12T06:57:41;7.95;;;4.43;;
21148;SDS011;10732;51.472;6.466;2023-04-12T07:00:07;5.93;;;4.53;;
21148;SDS011;10732;51.472;6.466;2023-04-12T07:02:33;8.95;;;5.05;;
21148;SDS011;10732;51.472;6.466;2023-04-12T07:04:58;9.32;;;4.63;;
21148;SDS011;10732;51.472;6.466;2023-04-12T07:07:24;11.02;;;5.18;;
21148;SDS011;10732;51.472;6.466;2023-04-12T07:09:50;8.35;;;5.43;;
21148;SDS011;10732;51.472;6.466;2023-04-12T07:12:16;8.55;;;4.60;;
21148;SDS011;10732;51.472;6.466;2023-04-12T07:14:42;7.75;;;5.65;;
21148;SDS011;10732;51.472;6.466;2023-04-12T07:17:07;8.98;;;5.25;;
21148;SDS011;10732;51.472;6.466;2023-04-12T07:19:33;7.50;;;5.32;;
21148;SDS011;10732;51.472;6.466;2023-04-12T07:21:58;9.65;;;5.72;;
21148;SDS011;10732;51.472;6.466;2023-04-12T07:24:24;8.23;;;6.47;;
21148;SDS011;10732;51.472;6.466;2023-04-12T07:26:53;8.27;;;6.07;;
21148;SDS011;10732;51.472;6.466;2023-04-12T07:29:19;7.47;;;5.82;;
21148;SDS011;10732;51.472;6.466;2023-04-12T07:31:44;8.35;;;5.90;;
21148;SDS011;10732;51.472;6.466;2023-04-12T07:34:10;9.63;;;6.18;;
21148;SDS011;10732;51.472;6.466;2023-04-12T07:36:36;7.53;;;5.90;;
21148;SDS011;10732;51.472;6.466;2023-04-12T07:39:02;8.30;;;6.22;;
21148;SDS011;10732;51.472;6.466;2023-04-12T07:41:27;9.98;;;6.50;;
21148;SDS011;10732;51.472;6.466;2023-04-12T07:43:53;8.63;;;6.30;;
21148;SDS011;10732;51.472;6.466;2023-04-12T07:46:18;8.43;;;6.30;;
21148;SDS011;10732;51.472;6.466;2023-04-12T07:48:45;7.82;;;6.45;;
21148;SDS011;10732;51.472;6.466;2023-04-12T07:51:10;9.65;;;6.25;;
21148;SDS011;10732;51.472;6.466;2023-04-12T07:53:36;7.28;;;6.13;;
21148;SDS011;10732;51.472;6.466;2023-04-12T07:56:02;9.18;;;6.47;;
21148;SDS011;10732;51.472;6.466;2023-04-12T07:58:31;7.63;;;6.78;;
21148;SDS011;10732;51.472;6.466;2023-04-12T08:00:57;8.13;;;6.82;;
21148;SDS011;10732;51.472;6.466;2023-04-12T08:03:23;12.38;;;7.05;;
21148;SDS011;10732;51.472;6.466;2023-04-12T08:05:48;8.23;;;6.57;;
21148;SDS011;10732;51.472;6.466;2023-04-12T08:08:17;7.72;;;6.80;;
21148;SDS011;10732;51.472;6.466;2023-04-12T08:10:44;8.60;;;7.22;;
21148;SDS011;10732;51.472;6.466;2023-04-12T08:13:10;9.55;;;7.47;;
21148;SDS011;10732;51.472;6.466;2023-04-12T08:15:36;8.98;;;7.00;;
21148;SDS011;10732;51.472;6.466;2023-04-12T08:18:01;10.55;;;7.00;;
21148;SDS011;10732;51.472;6.466;2023-04-12T08:20:28;10.15;;;7.85;;
21148;SDS011;10732;51.472;6.466;2023-04-12T08:22:53;12.18;;;8.82;;
21148;SDS011;10732;51.472;6.466;2023-04-12T08:25:19;11.02;;;8.18;;
21148;SDS011;10732;51.472;6.466;2023-04-12T08:27:45;11.40;;;8.30;;
21148;SDS011;10732;51.472;6.466;2023-04-12T08:30:11;9.57;;;7.28;;
21148;SDS011;10732;51.472;6.466;2023-04-12T08:32:37;8.20;;;7.35;;
21148;SDS011;10732;51.472;6.466;2023-04-12T08:35:06;8.38;;;7.53;;
21148;SDS011;10732;51.472;6.466;2023-04-12T08:37:32;10.73;;;8.48;;
21148;SDS011;10732;51.472;6.466;2023-04-12T08:40:01;9.40;;;7.15;;
21148;SDS011;10732;51.472;6.466;2023-04-12T08:42:30;11.20;;;7.30;;
21148;SDS011;10732;51.472;6.466;2023-04-12T08:44:56;8.18;;;7.35;;
21148;SDS011;10732;51.472;6.466;2023-04-12T08:47:22;9.45;;;6.85;;
21148;SDS011;10732;51.472;6.466;2023-04-12T08:49:48;9.05;;;6.65;;
21148;SDS011;10732;51.472;6.466;2023-04-12T08:52:13;8.57;;;7.50;;
21148;SDS011;10732;51.472;6.466;2023-04-12T08:54:39;7.80;;;7.00;;
21148;SDS011;10732;51.472;6.466;2023-04-12T08:57:06;9.68;;;7.85;;
21148;SDS011;10732;51.472;6.466;2023-04-12T08:59:37;8.68;;;7.45;;
21148;SDS011;10732;51.472;6.466;2023-04-12T09:02:06;9.85;;;7.35;;
21148;SDS011;10732;51.472;6.466;2023-04-12T09:04:31;8.07;;;7.10;;
21148;SDS011;10732;51.472;6.466;2023-04-12T09:06:57;8.00;;;7.10;;
21148;SDS011;10732;51.472;6.466;2023-04-12T09:12:11;8.38;;;6.75;;
21148;SDS011;10732;51.472;6.466;2023-04-12T09:14:37;8.30;;;6.18;;
21148;SDS011;10732;51.472;6.466;2023-04-12T09:17:04;8.15;;;6.65;;
21148;SDS011;10732;51.472;6.466;2023-04-12T09:19:45;7.03;;;5.63;;
21148;SDS011;10732;51.472;6.466;2023-04-12T09:22:10;8.25;;;5.57;;
21148;SDS011;10732;51.472;6.466;2023-04-12T09:24:45;5.80;;;5.18;;
21148;SDS011;10732;51.472;6.466;2023-04-12T09:27:13;9.65;;;5.47;;
21148;SDS011;10732;51.472;6.466;2023-04-12T09:29:39;5.00;;;4.43;;
21148;SDS011;10732;51.472;6.466;2023-04-12T09:32:05;5.35;;;4.57;;
21148;SDS011;10732;51.472;6.466;2023-04-12T09:34:33;4.32;;;3.90;;
21148;SDS011;10732;51.472;6.466;2023-04-12T09:37:03;4.10;;;3.72;;
21148;SDS011;10732;51.472;6.466;2023-04-12T09:39:37;3.53;;;3.08;;
21148;SDS011;10732;51.472;6.466;2023-04-12T09:42:06;4.60;;;2.72;;
21148;SDS011;10732;51.472;6.466;2023-04-12T09:44:33;2.97;;;2.10;;
21148;SDS011;10732;51.472;6.466;2023-04-12T09:46:59;2.40;;;1.90;;
21148;SDS011;10732;51.472;6.466;2023-04-12T09:49:35;5.90;;;2.03;;
21148;SDS011;10732;51.472;6.466;2023-04-12T09:52:12;7.25;;;2.08;;
21148;SDS011;10732;51.472;6.466;2023-04-12T09:54:42;4.78;;;1.80;;
21148;SDS011;10732;51.472;6.466;2023-04-12T09:57:09;7.10;;;1.95;;
21148;SDS011;10732;51.472;6.466;2023-04-12T09:59:37;5.82;;;1.70;;
21148;SDS011;10732;51.472;6.466;2023-04-12T10:02:15;5.45;;;2.00;;
21148;SDS011;10732;51.472;6.466;2023-04-12T10:04:42;8.02;;;2.15;;
21148;SDS011;10732;51.472;6.466;2023-04-12T10:07:09;6.20;;;1.92;;
21148;SDS011;10732;51.472;6.466;2023-04-12T10:09:39;5.53;;;1.60;;
21148;SDS011;10732;51.472;6.466;2023-04-12T10:12:05;4.20;;;1.60;;
21148;SDS011;10732;51.472;6.466;2023-04-12T10:14:32;6.57;;;1.85;;
21148;SDS011;10732;51.472;6.466;2023-04-12T10:16:58;7.95;;;1.88;;
21148;SDS011;10732;51.472;6.466;2023-04-12T10:19:26;5.45;;;1.92;;
21148;SDS011;10732;51.472;6.466;2023-04-12T10:21:53;5.05;;;1.83;;
21148;SDS011;10732;51.472;6.466;2023-04-12T10:24:22;12.10;;;2.20;;
21148;SDS011;10732;51.472;6.466;2023-04-12T10:26:49;8.30;;;2.47;;
21148;SDS011;10732;51.472;6.466;2023-04-12T10:29:29;7.30;;;2.30;;
21148;SDS011;10732;51.472;6.466;2023-04-12T10:32:16;8.15;;;2.10;;
21148;SDS011;10732;51.472;6.466;2023-04-12T10:34:51;7.32;;;2.45;;
21148;SDS011;10732;51.472;6.466;2023-04-12T10:37:17;9.95;;;2.38;;
21148;SDS011;10732;51.472;6.466;2023-04-12T10:39:44;7.35;;;1.95;;
21148;SDS011;10732;51.472;6.466;2023-04-12T10:44:47;7.28;;;2.00;;
21148;SDS011;10732;51.472;6.466;2023-04-12T10:50:25;9.55;;;1.98;;
21148;SDS011;10732;51.472;6.466;2023-04-12T10:55:40;8.90;;;2.42;;
21148;SDS011;10732;51.472;6.466;2023-04-12T10:58:07;9.48;;;2.17;;
21148;SDS011;10732;51.472;6.466;2023-04-12T11:03:20;5.35;;;1.98;;
21148;SDS011;10732;51.472;6.466;2023-04-12T11:08:25;7.13;;;2.42;;
21148;SDS011;10732;51.472;6.466;2023-04-12T11:10:58;4.47;;;2.38;;
21148;SDS011;10732;51.472;6.466;2023-04-12T11:13:25;5.30;;;2.45;;
21148;SDS011;10732;51.472;6.466;2023-04-12T11:15:53;5.85;;;2.00;;
21148;SDS011;10732;51.472;6.466;2023-04-12T11:18:20;5.63;;;2.33;;
21148;SDS011;10732;51.472;6.466;2023-04-12T11:20:46;8.27;;;3.03;;
21148;SDS011;10732;51.472;6.466;2023-04-12T11:23:12;7.32;;;2.67;;
21148;SDS011;10732;51.472;6.466;2023-04-12T11:25:38;8.57;;;4.22;;
21148;SDS011;10732;51.472;6.466;2023-04-12T11:28:04;6.32;;;2.22;;
21148;SDS011;10732;51.472;6.466;2023-04-12T11:30:31;6.22;;;2.28;;
21148;SDS011;10732;51.472;6.466;2023-04-12T11:32:56;7.65;;;2.05;;
21148;SDS011;10732;51.472;6.466;2023-04-12T11:35:22;6.38;;;2.10;;
21148;SDS011;10732;51.472;6.466;2023-04-12T11:37:51;6.70;;;2.60;;
21148;SDS011;10732;51.472;6.466;2023-04-12T11:40:20;7.60;;;2.20;;
21148;SDS011;10732;51.472;6.466;2023-04-12T11:42:46;8.82;;;2.28;;
21148;SDS011;10732;51.472;6.466;2023-04-12T11:45:13;9.98;;;2.92;;
21148;SDS011;10732;51.472;6.466;2023-04-12T11:47:44;8.35;;;2.28;;
21148;SDS011;10732;51.472;6.466;2023-04-12T11:50:10;7.68;;;2.33;;
21148;SDS011;10732;51.472;6.466;2023-04-12T11:52:36;9.15;;;2.30;;
21148;SDS011;10732;51.472;6.466;2023-04-12T11:55:02;8.45;;;3.05;;
21148;SDS011;10732;51.472;6.466;2023-04-12T11:57:30;7.30;;;2.40;;
21148;SDS011;10732;51.472;6.466;2023-04-12T11:59:56;7.47;;;2.10;;
21148;SDS011;10732;51.472;6.466;2023-04-12T12:02:25;9.15;;;2.50;;
21148;SDS011;10732;51.472;6.466;2023-04-12T12:04:51;6.25;;;2.50;;
21148;SDS011;10732;51.472;6.466;2023-04-12T12:07:19;6.75;;;2.13;;
21148;SDS011;10732;51.472;6.466;2023-04-12T12:09:46;10.15;;;2.70;;
21148;SDS011;10732;51.472;6.466;2023-04-12T12:12:12;4.75;;;2.08;;
21148;SDS011;10732;51.472;6.466;2023-04-12T12:14:38;9.80;;;2.75;;
21148;SDS011;10732;51.472;6.466;2023-04-12T12:17:08;8.52;;;2.67;;
21148;SDS011;10732;51.472;6.466;2023-04-12T12:19:39;7.22;;;2.22;;
21148;SDS011;10732;51.472;6.466;2023-04-12T12:27:23;7.15;;;2.78;;
21148;SDS011;10732;51.472;6.466;2023-04-12T12:29:58;7.40;;;2.60;;
21148;SDS011;10732;51.472;6.466;2023-04-12T12:32:25;8.68;;;2.55;;
21148;SDS011;10732;51.472;6.466;2023-04-12T12:34:56;8.13;;;2.78;;
21148;SDS011;10732;51.472;6.466;2023-04-12T12:37:23;8.15;;;2.60;;
21148;SDS011;10732;51.472;6.466;2023-04-12T12:40:02;10.20;;;2.85;;
21148;SDS011;10732;51.472;6.466;2023-04-12T12:42:51;7.95;;;3.00;;
21148;SDS011;10732;51.472;6.466;2023-04-12T12:45:19;7.53;;;2.90;;
21148;SDS011;10732;51.472;6.466;2023-04-12T12:47:53;10.32;;;3.83;;
21148;SDS011;10732;51.472;6.466;2023-04-12T12:50:23;8.48;;;3.10;;
21148;SDS011;10732;51.472;6.466;2023-04-12T12:52:50;9.13;;;3.80;;
21148;SDS011;10732;51.472;6.466;2023-04-12T12:55:17;6.85;;;3.33;;
21148;SDS011;10732;51.472;6.466;2023-04-12T12:57:43;8.93;;;3.17;;
21148;SDS011;10732;51.472;6.466;2023-04-12T13:00:12;15.35;;;3.17;;
21148;SDS011;10732;51.472;6.466;2023-04-12T13:02:40;14.88;;;3.40;;
21148;SDS011;10732;51.472;6.466;2023-04-12T13:05:09;12.95;;;3.75;;
21148;SDS011;10732;51.472;6.466;2023-04-12T13:07:35;16.55;;;4.55;;
21148;SDS011;10732;51.472;6.466;2023-04-12T13:10:01;12.25;;;4.45;;
21148;SDS011;10732;51.472;6.466;2023-04-12T13:12:27;12.10;;;4.00;;
21148;SDS011;10732;51.472;6.466;2023-04-12T13:14:52;17.65;;;4.68;;
21148;SDS011;10732;51.472;6.466;2023-04-12T13:17:19;15.30;;;4.97;;
21148;SDS011;10732;51.472;6.466;2023-04-12T13:19:45;15.50;;;4.85;;
21148;SDS011;10732;51.472;6.466;2023-04-12T13:22:12;13.35;;;3.78;;
21148;SDS011;10732;51.472;6.466;2023-04-12T13:24:38;9.07;;;4.28;;
21148;SDS011;10732;51.472;6.466;2023-04-12T13:27:03;10.32;;;4.53;;
21148;SDS011;10732;51.472;6.466;2023-04-12T13:29:29;12.55;;;3.95;;
21148;SDS011;10732;51.472;6.466;2023-04-12T13:31:55;7.90;;;4.20;;
21148;SDS011;10732;51.472;6.466;2023-04-12T13:34:20;10.70;;;4.35;;
21148;SDS011;10732;51.472;6.466;2023-04-12T13:36:46;10.55;;;4.32;;
21148;SDS011;10732;51.472;6.466;2023-04-12T13:39:12;12.48;;;4.20;;
21148;SDS011;10732;51.472;6.466;2023-04-12T13:41:38;10.02;;;4.60;;
21148;SDS011;10732;51.472;6.466;2023-04-12T13:44:04;10.43;;;4.18;;
21148;SDS011;10732;51.472;6.466;2023-04-12T13:46:29;9.85;;;3.67;;
21148;SDS011;10732;51.472;6.466;2023-04-12T13:48:55;11.35;;;3.05;;
21148;SDS011;10732;51.472;6.466;2023-04-12T13:51:21;9.75;;;2.88;;
21148;SDS011;10732;51.472;6.466;2023-04-12T13:53:47;12.20;;;2.88;;
21148;SDS011;10732;51.472;6.466;2023-04-12T13:56:12;6.90;;;2.42;;
21148;SDS011;10732;51.472;6.466;2023-04-12T13:58:39;7.85;;;2.25;;
21148;SDS011;10732;51.472;6.466;2023-04-12T14:01:05;6.93;;;2.17;;
21148;SDS011;10732;51.472;6.466;2023-04-12T14:03:32;8.30;;;3.13;;
21148;SDS011;10732;51.472;6.466;2023-04-12T14:05:58;9.10;;;2.72;;
21148;SDS011;10732;51.472;6.466;2023-04-12T14:08:25;10.77;;;3.28;;
21148;SDS011;10732;51.472;6.466;2023-04-12T14:10:51;13.18;;;3.85;;
21148;SDS011;10732;51.472;6.466;2023-04-12T14:13:18;9.30;;;4.03;;
21148;SDS011;10732;51.472;6.466;2023-04-12T14:15:46;11.85;;;4.00;;
21148;SDS011;10732;51.472;6.466;2023-04-12T14:18:11;14.57;;;3.55;;
21148;SDS011;10732;51.472;6.466;2023-04-12T14:20:37;11.82;;;3.17;;
21148;SDS011;10732;51.472;6.466;2023-04-12T14:23:02;7.50;;;2.80;;
21148;SDS011;10732;51.472;6.466;2023-04-12T14:25:28;8.90;;;3.20;;
21148;SDS011;10732;51.472;6.466;2023-04-12T14:27:54;7.80;;;3.05;;
21148;SDS011;10732;51.472;6.466;2023-04-12T14:30:19;10.70;;;2.95;;
21148;SDS011;10732;51.472;6.466;2023-04-12T14:32:45;8.10;;;3.20;;
21148;SDS011;10732;51.472;6.466;2023-04-12T14:35:11;10.00;;;3.33;;
21148;SDS011;10732;51.472;6.466;2023-04-12T14:37:37;8.68;;;3.65;;
21148;SDS011;10732;51.472;6.466;2023-04-12T14:40:03;8.80;;;3.10;;
21148;SDS011;10732;51.472;6.466;2023-04-12T14:42:30;7.28;;;3.05;;
21148;SDS011;10732;51.472;6.466;2023-04-12T14:44:56;9.00;;;3.28;;
21148;SDS011;10732;51.472;6.466;2023-04-12T14:47:21;4.13;;;2.42;;
21148;SDS011;10732;51.472;6.466;2023-04-12T14:49:47;4.93;;;2.15;;
21148;SDS011;10732;51.472;6.466;2023-04-12T14:52:13;3.45;;;1.30;;
21148;SDS011;10732;51.472;6.466;2023-04-12T14:54:38;3.00;;;1.20;;
21148;SDS011;10732;51.472;6.466;2023-04-12T14:57:04;4.38;;;1.13;;
21148;SDS011;10732;51.472;6.466;2023-04-12T14:59:30;2.33;;;1.00;;
21148;SDS011;10732;51.472;6.466;2023-04-12T15:01:56;1.42;;;0.80;;
21148;SDS011;10732;51.472;6.466;2023-04-12T15:04:23;3.17;;;1.15;;
21148;SDS011;10732;51.472;6.466;2023-04-12T15:06:49;1.98;;;0.90;;
21148;SDS011;10732;51.472;6.466;2023-04-12T15:09:14;3.60;;;1.10;;
21148;SDS011;10732;51.472;6.466;2023-04-12T15:11:41;2.85;;;0.93;;
21148;SDS011;10732;51.472;6.466;2023-04-12T15:14:10;2.72;;;1.15;;
21148;SDS011;10732;51.472;6.466;2023-04-12T15:16:45;2.25;;;0.98;;